sensor_id;sensor_type;location;lat;lon;timestamp;pressure;altitude;pressure_sealevel;temperature;humidity
41800;BME280;27468;47.460;19.034;2023-05-07T00:00:09;100335.34;;;15.83;85.50
41800;BME280;27468;47.460;19.034;2023-05-07T00:02:35;100377.03;;;16.03;85.25
41800;BME280;27468;47.460;19.034;2023-05-07T00:05:01;100356.47;;;15.86;85.25
41800;BME280;27468;47.460;19.034;2023-05-07T00:07:27;100355.06;;;15.77;86.22
41800;BME280;27468;47.460;19.034;2023-05-07T00:09:53;100395.22;;;15.92;86.87
41800;BME280;27468;47.460;19.034;2023-05-07T00:12:18;100394.00;;;15.78;87.97
41800;BME280;27468;47.460;19.034;2023-05-07T00:14:44;100381.63;;;15.77;87.85
41800;BME280;27468;47.460;19.034;2023-05-07T00:17:09;100403.47;;;15.85;87.52
41800;BME280;27468;47.460;19.034;2023-05-07T00:19:34;100377.63;;;15.67;87.69
41800;BME280;27468;47.460;19.034;2023-05-07T00:22:00;100393.38;;;15.72;87.66
41800;BME280;27468;47.460;19.034;2023-05-07T00:24:25;100420.34;;;15.84;87.66
41800;BME280;27468;47.460;19.034;2023-05-07T00:26:51;100397.91;;;15.70;88.13
41800;BME280;27468;47.460;19.034;2023-05-07T00:29:18;100357.91;;;15.51;87.92
41800;BME280;27468;47.460;19.034;2023-05-07T00:31:43;100385.94;;;15.60;88.45
41800;BME280;27468;47.460;19.034;2023-05-07T00:34:09;100368.72;;;15.46;88.88
41800;BME280;27468;47.460;19.034;2023-05-07T00:36:34;100364.50;;;15.41;89.31
41800;BME280;27468;47.460;19.034;2023-05-07T00:39:00;100353.31;;;15.33;89.14
41800;BME280;27468;47.460;19.034;2023-05-07T00:41:26;100399.22;;;15.60;88.81
41800;BME280;27468;47.460;19.034;2023-05-07T00:43:52;100393.25;;;15.53;88.51
41800;BME280;27468;47.460;19.034;2023-05-07T00:46:20;100411.66;;;15.59;88.46
41800;BME280;27468;47.460;19.034;2023-05-07T00:48:45;100401.53;;;15.45;89.06
41800;BME280;27468;47.460;19.034;2023-05-07T00:51:11;100413.94;;;15.45;89.95
41800;BME280;27468;47.460;19.034;2023-05-07T00:53:38;100411.41;;;15.42;89.78
41800;BME280;27468;47.460;19.034;2023-05-07T00:56:04;100384.75;;;15.22;89.20
41800;BME280;27468;47.460;19.034;2023-05-07T00:58:32;100412.56;;;15.35;89.50
41800;BME280;27468;47.460;19.034;2023-05-07T01:00:57;100390.00;;;15.23;88.80
41800;BME280;27468;47.460;19.034;2023-05-07T01:03:23;100412.75;;;15.30;89.03
41800;BME280;27468;47.460;19.034;2023-05-07T01:05:50;100364.34;;;15.00;88.97
41800;BME280;27468;47.460;19.034;2023-05-07T01:08:16;100421.63;;;15.29;89.50
41800;BME280;27468;47.460;19.034;2023-05-07T01:10:43;100401.91;;;15.13;89.28
41800;BME280;27468;47.460;19.034;2023-05-07T01:13:10;100361.81;;;14.97;89.22
41800;BME280;27468;47.460;19.034;2023-05-07T01:15:37;100412.53;;;15.13;89.28
41800;BME280;27468;47.460;19.034;2023-05-07T01:18:03;100367.41;;;14.90;89.47
41800;BME280;27468;47.460;19.034;2023-05-07T01:20:29;100390.31;;;14.92;89.96
41800;BME280;27468;47.460;19.034;2023-05-07T01:22:54;100398.88;;;15.00;89.59
41800;BME280;27468;47.460;19.034;2023-05-07T01:25:20;100432.91;;;15.12;89.38
41800;BME280;27468;47.460;19.034;2023-05-07T01:27:46;100359.31;;;14.69;89.45
41800;BME280;27468;47.460;19.034;2023-05-07T01:30:12;100421.53;;;15.09;88.92
41800;BME280;27468;47.460;19.034;2023-05-07T01:32:41;100430.59;;;15.03;89.34
41800;BME280;27468;47.460;19.034;2023-05-07T01:35:11;100420.06;;;15.02;88.89
41800;BME280;27468;47.460;19.034;2023-05-07T01:37:38;100420.50;;;14.90;89.55
41800;BME280;27468;47.460;19.034;2023-05-07T01:40:04;100375.41;;;14.65;88.80
41800;BME280;27468;47.460;19.034;2023-05-07T01:42:30;100390.34;;;14.67;88.96
41800;BME280;27468;47.460;19.034;2023-05-07T01:44:55;100417.16;;;14.84;89.41
41800;BME280;27468;47.460;19.034;2023-05-07T01:47:21;100355.94;;;14.41;89.74
41800;BME280;27468;47.460;19.034;2023-05-07T01:49:47;100414.78;;;14.77;89.17
41800;BME280;27468;47.460;19.034;2023-05-07T01:52:13;100426.19;;;14.79;89.33
41800;BME280;27468;47.460;19.034;2023-05-07T01:54:38;100419.28;;;14.75;89.57
41800;BME280;27468;47.460;19.034;2023-05-07T01:57:04;100385.72;;;14.49;89.66
41800;BME280;27468;47.460;19.034;2023-05-07T01:59:29;100397.94;;;14.53;90.90
41800;BME280;27468;47.460;19.034;2023-05-07T02:01:55;100388.69;;;14.40;90.75
41800;BME280;27468;47.460;19.034;2023-05-07T02:04:20;100381.38;;;14.46;90.56
41800;BME280;27468;47.460;19.034;2023-05-07T02:06:46;100349.38;;;14.26;90.04
41800;BME280;27468;47.460;19.034;2023-05-07T02:09:11;100353.94;;;14.23;89.99
41800;BME280;27468;47.460;19.034;2023-05-07T02:11:37;100335.03;;;14.07;90.28
41800;BME280;27468;47.460;19.034;2023-05-07T02:14:02;100367.28;;;14.19;90.65
41800;BME280;27468;47.460;19.034;2023-05-07T02:16:27;100397.72;;;14.34;90.89
41800;BME280;27468;47.460;19.034;2023-05-07T02:18:53;100406.44;;;14.38;90.70
41800;BME280;27468;47.460;19.034;2023-05-07T02:21:18;100399.72;;;14.28;90.27
41800;BME280;27468;47.460;19.034;2023-05-07T02:23:44;100394.47;;;14.26;91.10
41800;BME280;27468;47.460;19.034;2023-05-07T02:26:10;100360.72;;;14.05;91.12
41800;BME280;27468;47.460;19.034;2023-05-07T02:28:36;100366.94;;;14.04;91.47
41800;BME280;27468;47.460;19.034;2023-05-07T02:31:07;100345.34;;;13.89;91.67
41800;BME280;27468;47.460;19.034;2023-05-07T02:33:33;100404.56;;;14.15;91.92
41800;BME280;27468;47.460;19.034;2023-05-07T02:36:10;100370.06;;;13.90;92.87
41800;BME280;27468;47.460;19.034;2023-05-07T02:38:35;100331.06;;;13.69;92.54
41800;BME280;27468;47.460;19.034;2023-05-07T02:41:01;100399.69;;;14.03;92.80
41800;BME280;27468;47.460;19.034;2023-05-07T02:43:26;100392.63;;;14.02;92.48
41800;BME280;27468;47.460;19.034;2023-05-07T02:46:02;100368.50;;;13.84;92.00
41800;BME280;27468;47.460;19.034;2023-05-07T02:48:28;100355.56;;;13.75;92.04
41800;BME280;27468;47.460;19.034;2023-05-07T02:50:53;100350.38;;;13.72;92.27
41800;BME280;27468;47.460;19.034;2023-05-07T02:53:19;100363.63;;;13.72;92.07
41800;BME280;27468;47.460;19.034;2023-05-07T02:55:44;100410.00;;;13.85;92.26
41800;BME280;27468;47.460;19.034;2023-05-07T02:58:10;100334.66;;;13.40;92.79
41800;BME280;27468;47.460;19.034;2023-05-07T03:00:35;100382.25;;;13.69;92.79
41800;BME280;27468;47.460;19.034;2023-05-07T03:03:01;100387.66;;;13.66;93.21
41800;BME280;27468;47.460;19.034;2023-05-07T03:05:26;100383.22;;;13.67;92.77
41800;BME280;27468;47.460;19.034;2023-05-07T03:07:52;100393.81;;;13.67;93.06
41800;BME280;27468;47.460;19.034;2023-05-07T03:10:17;100407.50;;;13.81;93.12
41800;BME280;27468;47.460;19.034;2023-05-07T03:12:43;100387.47;;;13.72;93.02
41800;BME280;27468;47.460;19.034;2023-05-07T03:15:09;100347.50;;;13.52;92.98
41800;BME280;27468;47.460;19.034;2023-05-07T03:17:35;100390.00;;;13.75;93.11
41800;BME280;27468;47.460;19.034;2023-05-07T03:20:01;100357.91;;;13.58;93.26
41800;BME280;27468;47.460;19.034;2023-05-07T03:22:26;100356.94;;;13.61;92.84
41800;BME280;27468;47.460;19.034;2023-05-07T03:24:52;100384.28;;;13.87;92.76
41800;BME280;27468;47.460;19.034;2023-05-07T03:27:17;100358.25;;;13.74;92.25
41800;BME280;27468;47.460;19.034;2023-05-07T03:29:43;100402.38;;;14.01;92.14
41800;BME280;27468;47.460;19.034;2023-05-07T03:32:08;100398.16;;;13.96;92.03
41800;BME280;27468;47.460;19.034;2023-05-07T03:34:33;100389.53;;;13.89;91.73
41800;BME280;27468;47.460;19.034;2023-05-07T03:37:00;100400.50;;;14.05;91.52
41800;BME280;27468;47.460;19.034;2023-05-07T03:39:25;100412.69;;;14.10;91.35
41800;BME280;27468;47.460;19.034;2023-05-07T03:41:50;100381.28;;;13.98;91.03
41800;BME280;27468;47.460;19.034;2023-05-07T03:44:17;100405.53;;;14.12;90.82
41800;BME280;27468;47.460;19.034;2023-05-07T03:46:42;100407.31;;;14.12;90.47
41800;BME280;27468;47.460;19.034;2023-05-07T03:49:08;100388.22;;;14.02;90.23
41800;BME280;27468;47.460;19.034;2023-05-07T03:51:33;100410.63;;;14.18;90.11
41800;BME280;27468;47.460;19.034;2023-05-07T03:53:59;100415.88;;;14.20;89.97
41800;BME280;27468;47.460;19.034;2023-05-07T03:56:24;100403.81;;;14.11;89.57
41800;BME280;27468;47.460;19.034;2023-05-07T03:58:52;100412.47;;;14.16;89.27
41800;BME280;27468;47.460;19.034;2023-05-07T04:01:17;100421.53;;;14.09;89.34
41800;BME280;27468;47.460;19.034;2023-05-07T04:03:43;100421.75;;;14.03;89.50
41800;BME280;27468;47.460;19.034;2023-05-07T04:06:08;100382.81;;;13.79;89.54
41800;BME280;27468;47.460;19.034;2023-05-07T04:08:33;100429.69;;;14.03;89.44
41800;BME280;27468;47.460;19.034;2023-05-07T04:10:59;100421.53;;;14.09;89.44
41800;BME280;27468;47.460;19.034;2023-05-07T04:13:25;100387.06;;;13.84;89.34
41800;BME280;27468;47.460;19.034;2023-05-07T04:15:51;100424.03;;;14.14;89.17
41800;BME280;27468;47.460;19.034;2023-05-07T04:18:17;100419.59;;;14.14;88.69
41800;BME280;27468;47.460;19.034;2023-05-07T04:20:43;100379.69;;;13.93;88.49
41800;BME280;27468;47.460;19.034;2023-05-07T04:23:08;100409.47;;;14.01;88.47
41800;BME280;27468;47.460;19.034;2023-05-07T04:25:34;100450.16;;;14.26;88.43
41800;BME280;27468;47.460;19.034;2023-05-07T04:27:59;100429.84;;;14.25;88.34
41800;BME280;27468;47.460;19.034;2023-05-07T04:30:25;100423.22;;;14.38;88.21
41800;BME280;27468;47.460;19.034;2023-05-07T04:32:50;100452.19;;;14.69;87.97
41800;BME280;27468;47.460;19.034;2023-05-07T04:35:16;100431.41;;;14.82;86.86
41800;BME280;27468;47.460;19.034;2023-05-07T04:37:42;100418.44;;;14.98;85.69
41800;BME280;27468;47.460;19.034;2023-05-07T04:40:08;100389.28;;;14.96;85.21
41800;BME280;27468;47.460;19.034;2023-05-07T04:42:33;100451.66;;;15.55;84.04
41800;BME280;27468;47.460;19.034;2023-05-07T04:44:59;100441.09;;;15.75;82.19
41800;BME280;27468;47.460;19.034;2023-05-07T04:47:25;100424.19;;;16.40;81.45
41800;BME280;27468;47.460;19.034;2023-05-07T04:49:50;100405.88;;;16.74;76.12
41800;BME280;27468;47.460;19.034;2023-05-07T04:52:16;100435.56;;;17.42;73.53
41800;BME280;27468;47.460;19.034;2023-05-07T04:54:42;100409.91;;;17.58;70.28
41800;BME280;27468;47.460;19.034;2023-05-07T04:57:07;100374.91;;;17.47;70.58
41800;BME280;27468;47.460;19.034;2023-05-07T04:59:32;100404.03;;;17.70;70.87
41800;BME280;27468;47.460;19.034;2023-05-07T05:01:58;100400.69;;;17.46;69.66
41800;BME280;27468;47.460;19.034;2023-05-07T05:04:23;100415.63;;;17.32;69.69
41800;BME280;27468;47.460;19.034;2023-05-07T05:06:49;100406.13;;;17.26;71.09
41800;BME280;27468;47.460;19.034;2023-05-07T05:09:15;100426.50;;;17.27;71.69
41800;BME280;27468;47.460;19.034;2023-05-07T05:11:41;100378.97;;;16.99;72.48
41800;BME280;27468;47.460;19.034;2023-05-07T05:14:06;100390.25;;;16.86;72.11
41800;BME280;27468;47.460;19.034;2023-05-07T05:16:32;100387.31;;;16.92;73.03
41800;BME280;27468;47.460;19.034;2023-05-07T05:18:57;100434.34;;;17.11;73.55
41800;BME280;27468;47.460;19.034;2023-05-07T05:21:23;100432.53;;;17.12;73.82
41800;BME280;27468;47.460;19.034;2023-05-07T05:23:48;100393.97;;;16.81;73.07
41800;BME280;27468;47.460;19.034;2023-05-07T05:26:14;100387.38;;;16.90;72.97
41800;BME280;27468;47.460;19.034;2023-05-07T05:28:39;100400.00;;;17.05;72.78
41800;BME280;27468;47.460;19.034;2023-05-07T05:31:05;100397.34;;;17.24;72.99
41800;BME280;27468;47.460;19.034;2023-05-07T05:33:30;100413.09;;;17.47;71.60
41800;BME280;27468;47.460;19.034;2023-05-07T05:35:56;100390.72;;;17.33;71.18
41800;BME280;27468;47.460;19.034;2023-05-07T05:38:21;100423.25;;;17.39;69.97
41800;BME280;27468;47.460;19.034;2023-05-07T05:40:47;100382.34;;;17.03;70.16
41800;BME280;27468;47.460;19.034;2023-05-07T05:43:13;100418.53;;;17.27;71.14
41800;BME280;27468;47.460;19.034;2023-05-07T05:45:39;100437.81;;;17.32;70.86
41800;BME280;27468;47.460;19.034;2023-05-07T05:48:05;100385.56;;;16.91;71.77
41800;BME280;27468;47.460;19.034;2023-05-07T05:50:31;100424.78;;;17.26;71.92
41800;BME280;27468;47.460;19.034;2023-05-07T05:52:56;100436.84;;;17.33;72.15
41800;BME280;27468;47.460;19.034;2023-05-07T05:55:22;100393.81;;;17.24;72.16
41800;BME280;27468;47.460;19.034;2023-05-07T05:57:48;100433.69;;;17.44;71.67
41800;BME280;27468;47.460;19.034;2023-05-07T06:00:14;100427.94;;;17.53;72.00
41800;BME280;27468;47.460;19.034;2023-05-07T06:02:39;100375.09;;;17.25;71.77
41800;BME280;27468;47.460;19.034;2023-05-07T06:05:05;100425.75;;;17.61;72.00
41800;BME280;27468;47.460;19.034;2023-05-07T06:07:30;100388.00;;;17.52;70.58
41800;BME280;27468;47.460;19.034;2023-05-07T06:09:56;100431.91;;;17.82;71.03
41800;BME280;27468;47.460;19.034;2023-05-07T06:12:21;100363.81;;;17.56;69.73
41800;BME280;27468;47.460;19.034;2023-05-07T06:14:46;100432.13;;;17.95;69.08
41800;BME280;27468;47.460;19.034;2023-05-07T06:17:12;100413.22;;;17.82;68.77
41800;BME280;27468;47.460;19.034;2023-05-07T06:19:38;100396.81;;;17.72;67.49
41800;BME280;27468;47.460;19.034;2023-05-07T06:22:03;100438.25;;;17.97;67.79
41800;BME280;27468;47.460;19.034;2023-05-07T06:24:29;100393.06;;;17.58;68.08
41800;BME280;27468;47.460;19.034;2023-05-07T06:26:54;100375.19;;;17.41;68.56
41800;BME280;27468;47.460;19.034;2023-05-07T06:29:20;100416.19;;;17.76;69.18
41800;BME280;27468;47.460;19.034;2023-05-07T06:31:45;100429.88;;;17.87;68.80
41800;BME280;27468;47.460;19.034;2023-05-07T06:34:10;100404.13;;;17.86;68.52
41800;BME280;27468;47.460;19.034;2023-05-07T06:36:42;100388.13;;;17.86;66.90
41800;BME280;27468;47.460;19.034;2023-05-07T06:39:07;100437.53;;;18.29;65.92
41800;BME280;27468;47.460;19.034;2023-05-07T06:41:32;100429.34;;;18.32;63.52
41800;BME280;27468;47.460;19.034;2023-05-07T06:43:58;100418.75;;;18.48;63.97
41800;BME280;27468;47.460;19.034;2023-05-07T06:46:23;100428.72;;;18.79;64.15
41800;BME280;27468;47.460;19.034;2023-05-07T06:48:49;100434.91;;;18.97;63.24
41800;BME280;27468;47.460;19.034;2023-05-07T06:51:14;100420.75;;;18.95;62.91
41800;BME280;27468;47.460;19.034;2023-05-07T06:53:40;100430.50;;;19.11;62.85
41800;BME280;27468;47.460;19.034;2023-05-07T06:56:06;100435.34;;;19.21;62.92
41800;BME280;27468;47.460;19.034;2023-05-07T06:58:31;100442.44;;;19.22;61.30
41800;BME280;27468;47.460;19.034;2023-05-07T07:00:57;100393.78;;;19.15;61.82
41800;BME280;27468;47.460;19.034;2023-05-07T07:03:22;100420.00;;;19.57;62.02
41800;BME280;27468;47.460;19.034;2023-05-07T07:05:51;100432.13;;;19.78;60.39
41800;BME280;27468;47.460;19.034;2023-05-07T07:08:17;100430.66;;;19.89;59.19
41800;BME280;27468;47.460;19.034;2023-05-07T07:10:43;100424.53;;;19.87;58.52
41800;BME280;27468;47.460;19.034;2023-05-07T07:13:08;100442.22;;;20.05;58.39
41800;BME280;27468;47.460;19.034;2023-05-07T07:15:33;100431.16;;;20.25;58.40
41800;BME280;27468;47.460;19.034;2023-05-07T07:17:59;100440.31;;;20.37;57.48
41800;BME280;27468;47.460;19.034;2023-05-07T07:20:24;100383.59;;;20.00;56.09
41800;BME280;27468;47.460;19.034;2023-05-07T07:22:50;100432.88;;;20.42;56.30
41800;BME280;27468;47.460;19.034;2023-05-07T07:25:15;100446.19;;;20.43;55.80
41800;BME280;27468;47.460;19.034;2023-05-07T07:27:41;100461.56;;;20.70;56.46
41800;BME280;27468;47.460;19.034;2023-05-07T07:30:06;100455.94;;;20.89;56.18
41800;BME280;27468;47.460;19.034;2023-05-07T07:32:32;100451.44;;;21.03;55.43
41800;BME280;27468;47.460;19.034;2023-05-07T07:34:58;100440.63;;;21.19;55.59
41800;BME280;27468;47.460;19.034;2023-05-07T07:37:24;100446.41;;;21.27;53.81
41800;BME280;27468;47.460;19.034;2023-05-07T07:39:50;100456.84;;;21.32;53.72
41800;BME280;27468;47.460;19.034;2023-05-07T07:42:16;100459.41;;;21.48;52.40
41800;BME280;27468;47.460;19.034;2023-05-07T07:44:41;100464.09;;;21.44;52.27
41800;BME280;27468;47.460;19.034;2023-05-07T07:47:06;100471.25;;;21.72;52.86
41800;BME280;27468;47.460;19.034;2023-05-07T07:49:32;100443.19;;;21.63;50.80
41800;BME280;27468;47.460;19.034;2023-05-07T07:51:57;100447.41;;;21.67;50.54
41800;BME280;27468;47.460;19.034;2023-05-07T07:54:24;100471.25;;;22.13;51.10
41800;BME280;27468;47.460;19.034;2023-05-07T07:56:50;100434.31;;;22.17;49.81
41800;BME280;27468;47.460;19.034;2023-05-07T07:59:16;100460.84;;;22.48;50.58
41800;BME280;27468;47.460;19.034;2023-05-07T08:01:44;100424.22;;;22.20;50.83
41800;BME280;27468;47.460;19.034;2023-05-07T08:04:10;100456.19;;;22.37;51.59
41800;BME280;27468;47.460;19.034;2023-05-07T08:06:35;100479.19;;;22.42;52.16
41800;BME280;27468;47.460;19.034;2023-05-07T08:09:01;100474.47;;;22.45;52.61
41800;BME280;27468;47.460;19.034;2023-05-07T08:11:26;100468.56;;;22.40;53.49
41800;BME280;27468;47.460;19.034;2023-05-07T08:13:52;100480.72;;;22.46;53.95
41800;BME280;27468;47.460;19.034;2023-05-07T08:16:17;100470.16;;;22.43;53.77
41800;BME280;27468;47.460;19.034;2023-05-07T08:18:43;100470.81;;;22.46;54.37
41800;BME280;27468;47.460;19.034;2023-05-07T08:21:08;100463.84;;;22.44;54.59
41800;BME280;27468;47.460;19.034;2023-05-07T08:23:34;100476.19;;;22.46;54.63
41800;BME280;27468;47.460;19.034;2023-05-07T08:26:00;100465.09;;;22.38;55.45
41800;BME280;27468;47.460;19.034;2023-05-07T08:28:25;100466.72;;;22.40;56.13
41800;BME280;27468;47.460;19.034;2023-05-07T08:30:51;100458.63;;;22.28;58.26
41800;BME280;27468;47.460;19.034;2023-05-07T08:33:16;100454.97;;;22.29;58.68
41800;BME280;27468;47.460;19.034;2023-05-07T08:35:41;100458.81;;;22.25;58.20
41800;BME280;27468;47.460;19.034;2023-05-07T08:38:07;100455.91;;;22.15;58.89
41800;BME280;27468;47.460;19.034;2023-05-07T08:40:37;100450.00;;;22.23;58.54
41800;BME280;27468;47.460;19.034;2023-05-07T08:43:07;100466.16;;;22.35;58.31
41800;BME280;27468;47.460;19.034;2023-05-07T08:45:33;100445.97;;;22.30;57.61
41800;BME280;27468;47.460;19.034;2023-05-07T08:48:02;100444.03;;;22.32;57.43
41800;BME280;27468;47.460;19.034;2023-05-07T08:50:29;100468.03;;;22.60;56.75
41800;BME280;27468;47.460;19.034;2023-05-07T08:52:55;100467.19;;;22.72;56.05
41800;BME280;27468;47.460;19.034;2023-05-07T08:55:22;100448.69;;;22.68;55.85
41800;BME280;27468;47.460;19.034;2023-05-07T08:57:48;100408.94;;;22.48;55.23
41800;BME280;27468;47.460;19.034;2023-05-07T09:00:14;100470.38;;;22.92;54.76
41800;BME280;27468;47.460;19.034;2023-05-07T09:02:39;100459.91;;;23.13;54.34
41800;BME280;27468;47.460;19.034;2023-05-07T09:05:05;100421.88;;;23.06;53.48
41800;BME280;27468;47.460;19.034;2023-05-07T09:07:31;100453.66;;;23.25;52.93
41800;BME280;27468;47.460;19.034;2023-05-07T09:09:56;100455.28;;;23.40;52.52
41800;BME280;27468;47.460;19.034;2023-05-07T09:12:24;100469.81;;;23.63;52.94
41800;BME280;27468;47.460;19.034;2023-05-07T09:14:50;100456.34;;;23.63;52.07
41800;BME280;27468;47.460;19.034;2023-05-07T09:17:16;100462.41;;;23.78;51.80
41800;BME280;27468;47.460;19.034;2023-05-07T09:19:43;100469.50;;;23.79;51.34
41800;BME280;27468;47.460;19.034;2023-05-07T09:22:09;100443.16;;;23.71;51.15
41800;BME280;27468;47.460;19.034;2023-05-07T09:24:35;100468.16;;;23.97;51.28
41800;BME280;27468;47.460;19.034;2023-05-07T09:27:03;100459.91;;;23.87;51.28
41800;BME280;27468;47.460;19.034;2023-05-07T09:29:29;100465.63;;;23.83;51.42
41800;BME280;27468;47.460;19.034;2023-05-07T09:31:55;100468.88;;;23.75;50.99
41800;BME280;27468;47.460;19.034;2023-05-07T09:34:21;100458.28;;;23.61;50.77
41800;BME280;27468;47.460;19.034;2023-05-07T09:36:47;100456.22;;;23.52;50.62
41800;BME280;27468;47.460;19.034;2023-05-07T09:39:13;100443.75;;;23.51;51.22
41800;BME280;27468;47.460;19.034;2023-05-07T09:41:46;100448.91;;;23.66;50.83
41800;BME280;27468;47.460;19.034;2023-05-07T09:44:13;100456.06;;;23.79;50.15
41800;BME280;27468;47.460;19.034;2023-05-07T09:46:42;100462.28;;;23.79;49.74
41800;BME280;27468;47.460;19.034;2023-05-07T09:49:12;100457.53;;;23.83;48.83
41800;BME280;27468;47.460;19.034;2023-05-07T09:51:48;100454.81;;;23.95;48.67
41800;BME280;27468;47.460;19.034;2023-05-07T09:54:14;100439.41;;;23.97;49.00
41800;BME280;27468;47.460;19.034;2023-05-07T09:56:40;100451.28;;;24.19;48.95
41800;BME280;27468;47.460;19.034;2023-05-07T09:59:12;100454.19;;;24.16;47.99
41800;BME280;27468;47.460;19.034;2023-05-07T10:01:38;100458.66;;;24.04;48.19
41800;BME280;27468;47.460;19.034;2023-05-07T10:04:06;100462.38;;;23.90;48.39
41800;BME280;27468;47.460;19.034;2023-05-07T10:06:34;100469.38;;;23.93;48.72
41800;BME280;27468;47.460;19.034;2023-05-07T10:09:01;100464.66;;;23.84;48.52
41800;BME280;27468;47.460;19.034;2023-05-07T10:11:27;100472.28;;;23.66;48.61
41800;BME280;27468;47.460;19.034;2023-05-07T10:13:53;100447.19;;;23.53;48.33
41800;BME280;27468;47.460;19.034;2023-05-07T10:16:19;100448.16;;;23.52;48.27
41800;BME280;27468;47.460;19.034;2023-05-07T10:18:46;100440.13;;;23.26;48.61
41800;BME280;27468;47.460;19.034;2023-05-07T10:21:16;100468.84;;;23.26;48.38
41800;BME280;27468;47.460;19.034;2023-05-07T10:23:45;100469.38;;;23.31;48.18
41800;BME280;27468;47.460;19.034;2023-05-07T10:26:12;100463.47;;;23.26;48.19
41800;BME280;27468;47.460;19.034;2023-05-07T10:28:40;100474.22;;;23.26;48.05
41800;BME280;27468;47.460;19.034;2023-05-07T10:33:55;100465.06;;;23.41;47.84
41800;BME280;27468;47.460;19.034;2023-05-07T10:36:22;100449.47;;;23.33;45.92
41800;BME280;27468;47.460;19.034;2023-05-07T10:38:47;100416.53;;;23.30;45.46
41800;BME280;27468;47.460;19.034;2023-05-07T10:41:13;100424.03;;;23.50;46.08
41800;BME280;27468;47.460;19.034;2023-05-07T10:43:40;100471.31;;;23.91;46.08
41800;BME280;27468;47.460;19.034;2023-05-07T10:46:20;100470.81;;;24.10;45.87
41800;BME280;27468;47.460;19.034;2023-05-07T10:51:32;100452.16;;;24.54;45.28
41800;BME280;27468;47.460;19.034;2023-05-07T10:56:35;100450.91;;;24.47;44.94
41800;BME280;27468;47.460;19.034;2023-05-07T11:02:00;100416.91;;;24.68;44.62
41800;BME280;27468;47.460;19.034;2023-05-07T11:04:31;100408.44;;;24.84;44.48
41800;BME280;27468;47.460;19.034;2023-05-07T11:17:29;100439.09;;;24.72;42.45
41800;BME280;27468;47.460;19.034;2023-05-07T11:19:57;100415.41;;;24.53;43.57
41800;BME280;27468;47.460;19.034;2023-05-07T11:24:59;100437.22;;;24.61;42.03
41800;BME280;27468;47.460;19.034;2023-05-07T11:27:26;100454.06;;;24.76;42.41
41800;BME280;27468;47.460;19.034;2023-05-07T11:29:51;100434.19;;;24.88;41.83
41800;BME280;27468;47.460;19.034;2023-05-07T11:32:30;100436.34;;;25.07;40.93
41800;BME280;27468;47.460;19.034;2023-05-07T11:34:58;100427.66;;;24.57;41.52
41800;BME280;27468;47.460;19.034;2023-05-07T11:37:24;100390.28;;;24.53;41.15
41800;BME280;27468;47.460;19.034;2023-05-07T11:39:50;100404.75;;;24.63;40.40
41800;BME280;27468;47.460;19.034;2023-05-07T11:42:38;100424.38;;;24.87;40.33
41800;BME280;27468;47.460;19.034;2023-05-07T11:45:04;100425.50;;;24.85;40.62
41800;BME280;27468;47.460;19.034;2023-05-07T11:47:31;100389.59;;;24.73;40.58
41800;BME280;27468;47.460;19.034;2023-05-07T11:49:56;100405.88;;;24.94;40.01
41800;BME280;27468;47.460;19.034;2023-05-07T11:52:27;100429.50;;;25.25;38.45
41800;BME280;27468;47.460;19.034;2023-05-07T11:54:54;100394.78;;;25.10;38.67
41800;BME280;27468;47.460;19.034;2023-05-07T11:57:23;100428.03;;;25.32;38.87
41800;BME280;27468;47.460;19.034;2023-05-07T11:59:58;100420.03;;;25.31;40.26
41800;BME280;27468;47.460;19.034;2023-05-07T12:02:24;100422.75;;;25.20;38.78
41800;BME280;27468;47.460;19.034;2023-05-07T12:04:53;100392.28;;;24.84;39.15
41800;BME280;27468;47.460;19.034;2023-05-07T12:07:20;100414.22;;;24.91;39.41
41800;BME280;27468;47.460;19.034;2023-05-07T12:09:46;100403.56;;;24.67;39.34
41800;BME280;27468;47.460;19.034;2023-05-07T12:12:13;100420.84;;;24.76;39.30
41800;BME280;27468;47.460;19.034;2023-05-07T12:14:44;100422.13;;;24.48;39.35
41800;BME280;27468;47.460;19.034;2023-05-07T12:17:11;100399.78;;;24.34;39.61
41800;BME280;27468;47.460;19.034;2023-05-07T12:19:38;100409.13;;;24.42;39.32
41800;BME280;27468;47.460;19.034;2023-05-07T12:22:05;100393.41;;;24.35;40.71
41800;BME280;27468;47.460;19.034;2023-05-07T12:24:46;100364.38;;;24.28;38.38
41800;BME280;27468;47.460;19.034;2023-05-07T12:27:13;100357.66;;;24.33;37.58
41800;BME280;27468;47.460;19.034;2023-05-07T12:29:38;100369.31;;;24.10;38.01
41800;BME280;27468;47.460;19.034;2023-05-07T12:32:06;100379.81;;;24.26;37.58
41800;BME280;27468;47.460;19.034;2023-05-07T12:34:32;100316.84;;;23.92;37.91
41800;BME280;27468;47.460;19.034;2023-05-07T12:36:57;100361.41;;;24.20;36.95
41800;BME280;27468;47.460;19.034;2023-05-07T12:39:26;100337.69;;;24.36;36.77
41800;BME280;27468;47.460;19.034;2023-05-07T12:41:57;100404.66;;;24.87;36.82
41800;BME280;27468;47.460;19.034;2023-05-07T12:44:25;100400.38;;;24.95;36.57
41800;BME280;27468;47.460;19.034;2023-05-07T12:46:51;100335.91;;;24.59;37.39
41800;BME280;27468;47.460;19.034;2023-05-07T12:49:17;100349.03;;;24.75;38.82
41800;BME280;27468;47.460;19.034;2023-05-07T12:51:43;100357.84;;;24.65;38.01
41800;BME280;27468;47.460;19.034;2023-05-07T12:54:09;100385.69;;;24.99;37.15
41800;BME280;27468;47.460;19.034;2023-05-07T12:56:37;100355.78;;;24.80;35.78
41800;BME280;27468;47.460;19.034;2023-05-07T12:59:02;100394.16;;;24.84;36.40